sensor_id;sensor_type;location;lat;lon;timestamp;pressure;altitude;pressure_sealevel;temperature;humidity
44453;BME280;30155;52.164;21.236;2022-09-09T00:03:19;100326.81;;;13.12;65.07
44453;BME280;30155;52.164;21.236;2022-09-09T00:08:21;100320.27;;;13.07;65.65
44453;BME280;30155;52.164;21.236;2022-09-09T00:13:25;100323.77;;;13.05;65.98
44453;BME280;30155;52.164;21.236;2022-09-09T00:24:04;100315.49;;;12.97;66.40
44453;BME280;30155;52.164;21.236;2022-09-09T00:29:14;100315.91;;;12.89;66.50
44453;BME280;30155;52.164;21.236;2022-09-09T00:34:18;100307.20;;;12.86;66.72
44453;BME280;30155;52.164;21.236;2022-09-09T00:39:58;100302.88;;;12.83;67.13
44453;BME280;30155;52.164;21.236;2022-09-09T00:44:27;100298.53;;;12.79;67.43
44453;BME280;30155;52.164;21.236;2022-09-09T01:05:22;100298.48;;;12.62;68.51
44453;BME280;30155;52.164;21.236;2022-09-09T01:10:36;100299.80;;;12.57;68.63
44453;BME280;30155;52.164;21.236;2022-09-09T01:15:30;100303.70;;;12.57;68.98
44453;BME280;30155;52.164;21.236;2022-09-09T01:20:39;100299.34;;;12.56;68.99
44453;BME280;30155;52.164;21.236;2022-09-09T01:26:08;100288.05;;;12.56;69.00
44453;BME280;30155;52.164;21.236;2022-09-09T01:31:00;100282.39;;;12.56;69.30
44453;BME280;30155;52.164;21.236;2022-09-09T01:36:08;100277.17;;;12.55;70.55
44453;BME280;30155;52.164;21.236;2022-09-09T01:41:00;100281.09;;;12.50;69.74
44453;BME280;30155;52.164;21.236;2022-09-09T01:45:55;100274.58;;;12.50;70.00
44453;BME280;30155;52.164;21.236;2022-09-09T01:50:49;100281.93;;;12.46;70.11
44453;BME280;30155;52.164;21.236;2022-09-09T01:55:43;100280.65;;;12.51;70.51
44453;BME280;30155;52.164;21.236;2022-09-09T02:00:42;100277.16;;;12.47;71.90
44453;BME280;30155;52.164;21.236;2022-09-09T02:05:40;100275.42;;;12.43;70.36
44453;BME280;30155;52.164;21.236;2022-09-09T02:10:52;100274.98;;;12.42;70.72
44453;BME280;30155;52.164;21.236;2022-09-09T02:16:07;100278.44;;;12.41;70.73
44453;BME280;30155;52.164;21.236;2022-09-09T02:21:02;100279.34;;;12.43;70.99
44453;BME280;30155;52.164;21.236;2022-09-09T02:25:55;100275.42;;;12.43;70.94
44453;BME280;30155;52.164;21.236;2022-09-09T02:30:50;100275.42;;;12.43;71.20
44453;BME280;30155;52.164;21.236;2022-09-09T02:35:52;100274.98;;;12.42;71.47
44453;BME280;30155;52.164;21.236;2022-09-09T02:40:45;100276.72;;;12.42;71.61
44453;BME280;30155;52.164;21.236;2022-09-09T02:45:47;100278.89;;;12.42;71.62
44453;BME280;30155;52.164;21.236;2022-09-09T02:50:59;100274.55;;;12.38;72.01
44453;BME280;30155;52.164;21.236;2022-09-09T02:56:08;100275.41;;;12.40;71.99
44453;BME280;30155;52.164;21.236;2022-09-09T03:00:59;100282.79;;;12.40;72.14
44453;BME280;30155;52.164;21.236;2022-09-09T03:05:52;100277.13;;;12.41;72.15
44453;BME280;30155;52.164;21.236;2022-09-09T03:10:43;100282.81;;;12.44;72.40
44453;BME280;30155;52.164;21.236;2022-09-09T03:15:36;100281.52;;;12.45;72.55
44453;BME280;30155;52.164;21.236;2022-09-09T03:20:30;100277.15;;;12.44;72.58
44453;BME280;30155;52.164;21.236;2022-09-09T03:25:22;100276.72;;;12.46;72.77
44453;BME280;30155;52.164;21.236;2022-09-09T03:30:17;100276.72;;;12.46;72.73
44453;BME280;30155;52.164;21.236;2022-09-09T03:35:09;100268.48;;;12.45;72.84
44453;BME280;30155;52.164;21.236;2022-09-09T03:40:01;100272.39;;;12.45;72.90
44453;BME280;30155;52.164;21.236;2022-09-09T03:44:52;100263.68;;;12.46;73.08
44453;BME280;30155;52.164;21.236;2022-09-09T03:49:45;100265.44;;;12.47;73.26
44453;BME280;30155;52.164;21.236;2022-09-09T03:54:37;100260.23;;;12.50;73.36
44453;BME280;30155;52.164;21.236;2022-09-09T03:59:29;100258.49;;;12.52;73.35
44453;BME280;30155;52.164;21.236;2022-09-09T04:04:21;100262.40;;;12.51;73.40
44453;BME280;30155;52.164;21.236;2022-09-09T04:09:12;100264.56;;;12.51;73.60
44453;BME280;30155;52.164;21.236;2022-09-09T04:14:04;100260.66;;;12.51;73.60
44453;BME280;30155;52.164;21.236;2022-09-09T04:18:56;100261.95;;;12.51;74.00
44453;BME280;30155;52.164;21.236;2022-09-09T04:23:49;100264.56;;;12.51;73.99
44453;BME280;30155;52.164;21.236;2022-09-09T04:28:40;100275.01;;;12.54;74.24
44453;BME280;30155;52.164;21.236;2022-09-09T04:33:33;100271.09;;;12.54;74.01
44453;BME280;30155;52.164;21.236;2022-09-09T04:38:25;100275.01;;;12.54;74.08
44453;BME280;30155;52.164;21.236;2022-09-09T04:43:17;100271.10;;;12.56;74.24
44453;BME280;30155;52.164;21.236;2022-09-09T04:48:10;100262.84;;;12.56;74.31
44453;BME280;30155;52.164;21.236;2022-09-09T04:53:03;100264.16;;;12.59;74.44
44453;BME280;30155;52.164;21.236;2022-09-09T04:57:56;100271.54;;;12.62;74.32
44453;BME280;30155;52.164;21.236;2022-09-09T05:02:48;100273.30;;;12.63;74.47
44453;BME280;30155;52.164;21.236;2022-09-09T05:07:39;100281.97;;;12.68;74.56
44453;BME280;30155;52.164;21.236;2022-09-09T05:12:31;100275.03;;;12.67;74.57
44453;BME280;30155;52.164;21.236;2022-09-09T05:17:23;100285.48;;;12.70;74.63
44453;BME280;30155;52.164;21.236;2022-09-09T05:22:19;100284.17;;;12.70;74.71
44453;BME280;30155;52.164;21.236;2022-09-09T05:27:11;100283.72;;;12.69;74.73
44453;BME280;30155;52.164;21.236;2022-09-09T05:32:04;100285.89;;;12.71;74.83
44453;BME280;30155;52.164;21.236;2022-09-09T05:36:55;100289.38;;;12.74;75.02
44453;BME280;30155;52.164;21.236;2022-09-09T05:41:47;100293.75;;;12.77;75.12
44453;BME280;30155;52.164;21.236;2022-09-09T05:46:39;100289.81;;;12.78;75.05
44453;BME280;30155;52.164;21.236;2022-09-09T05:51:30;100295.03;;;12.82;74.92
44453;BME280;30155;52.164;21.236;2022-09-09T05:56:24;100286.36;;;12.84;75.12
44453;BME280;30155;52.164;21.236;2022-09-09T06:01:26;100291.56;;;12.87;75.21
44453;BME280;30155;52.164;21.236;2022-09-09T06:06:19;100296.34;;;12.89;75.27
44453;BME280;30155;52.164;21.236;2022-09-09T06:11:18;100301.56;;;12.92;75.40
44453;BME280;30155;52.164;21.236;2022-09-09T06:16:16;100303.32;;;12.93;75.46
44453;BME280;30155;52.164;21.236;2022-09-09T06:21:17;100310.28;;;12.91;75.51
44453;BME280;30155;52.164;21.236;2022-09-09T06:31:12;100319.85;;;12.97;75.59
44453;BME280;30155;52.164;21.236;2022-09-09T06:36:03;100316.81;;;13.02;75.77
44453;BME280;30155;52.164;21.236;2022-09-09T06:40:57;100323.32;;;13.07;75.72
44453;BME280;30155;52.164;21.236;2022-09-09T06:45:57;100326.36;;;13.11;75.61
44453;BME280;30155;52.164;21.236;2022-09-09T06:50:51;100329.84;;;13.16;75.70
44453;BME280;30155;52.164;21.236;2022-09-09T06:55:42;100329.44;;;13.18;75.82
44453;BME280;30155;52.164;21.236;2022-09-09T07:00:36;100335.09;;;13.22;75.69
44453;BME280;30155;52.164;21.236;2022-09-09T07:05:30;100335.50;;;13.23;75.67
44453;BME280;30155;52.164;21.236;2022-09-09T07:10:21;100334.20;;;13.28;75.72
44453;BME280;30155;52.164;21.236;2022-09-09T07:15:12;100335.56;;;13.32;75.73
44453;BME280;30155;52.164;21.236;2022-09-09T07:20:07;100338.60;;;13.40;76.17
44453;BME280;30155;52.164;21.236;2022-09-09T07:24:58;100341.20;;;13.37;75.66
44453;BME280;30155;52.164;21.236;2022-09-09T07:29:50;100350.77;;;13.38;75.79
44453;BME280;30155;52.164;21.236;2022-09-09T07:34:42;100358.60;;;13.41;76.03
44453;BME280;30155;52.164;21.236;2022-09-09T07:39:34;100367.30;;;13.43;75.98
44453;BME280;30155;52.164;21.236;2022-09-09T07:44:25;100365.56;;;13.48;75.93
44453;BME280;30155;52.164;21.236;2022-09-09T07:49:22;100365.13;;;13.54;75.90
44453;BME280;30155;52.164;21.236;2022-09-09T07:54:15;100363.39;;;13.58;75.83
44453;BME280;30155;52.164;21.236;2022-09-09T07:59:09;100365.56;;;13.63;75.77
44453;BME280;30155;52.164;21.236;2022-09-09T08:04:05;100375.98;;;13.69;76.06
44453;BME280;30155;52.164;21.236;2022-09-09T08:09:02;100381.23;;;13.77;75.72
44453;BME280;30155;52.164;21.236;2022-09-09T08:13:55;100385.56;;;13.83;75.62
44453;BME280;30155;52.164;21.236;2022-09-09T08:18:48;100385.99;;;13.91;75.53
44453;BME280;30155;52.164;21.236;2022-09-09T08:23:41;100382.48;;;13.94;75.57
44453;BME280;30155;52.164;21.236;2022-09-09T08:28:34;100379.02;;;13.94;75.77
44453;BME280;30155;52.164;21.236;2022-09-09T08:33:25;100387.72;;;13.97;75.74
44453;BME280;30155;52.164;21.236;2022-09-09T08:38:17;100393.80;;;13.99;75.78
44453;BME280;30155;52.164;21.236;2022-09-09T08:43:09;100399.45;;;14.00;75.82
44453;BME280;30155;52.164;21.236;2022-09-09T08:48:27;100402.52;;;14.06;75.76
44453;BME280;30155;52.164;21.236;2022-09-09T08:53:47;100395.95;;;14.10;75.87
44453;BME280;30155;52.164;21.236;2022-09-09T08:58:49;100409.02;;;14.14;75.79
44453;BME280;30155;52.164;21.236;2022-09-09T09:14:35;100415.52;;;14.20;75.87
44453;BME280;30155;52.164;21.236;2022-09-09T09:19:43;100423.81;;;14.18;75.86
44453;BME280;30155;52.164;21.236;2022-09-09T22:27:56;100609.73;;;13.45;81.36
44453;BME280;30155;52.164;21.236;2022-09-09T22:32:48;100611.06;;;13.43;81.32
44453;BME280;30155;52.164;21.236;2022-09-09T22:37:40;100614.52;;;13.41;81.36
44453;BME280;30155;52.164;21.236;2022-09-09T22:42:31;100617.13;;;13.39;81.38
44453;BME280;30155;52.164;21.236;2022-09-09T22:47:24;100618.88;;;13.39;81.35
44453;BME280;30155;52.164;21.236;2022-09-09T22:52:16;100617.56;;;13.39;81.39
44453;BME280;30155;52.164;21.236;2022-09-09T22:57:07;100621.03;;;13.38;81.49
44453;BME280;30155;52.164;21.236;2022-09-09T23:01:59;100612.77;;;13.37;81.87
44453;BME280;30155;52.164;21.236;2022-09-09T23:06:49;100600.57;;;13.35;81.43
44453;BME280;30155;52.164;21.236;2022-09-09T23:11:41;100591.42;;;13.34;81.47
44453;BME280;30155;52.164;21.236;2022-09-09T23:16:39;100595.36;;;13.32;81.41
44453;BME280;30155;52.164;21.236;2022-09-09T23:21:30;100588.33;;;13.28;81.29
44453;BME280;30155;52.164;21.236;2022-09-09T23:26:22;100583.97;;;13.24;81.53
44453;BME280;30155;52.164;21.236;2022-09-09T23:31:16;100582.22;;;13.20;81.39
44453;BME280;30155;52.164;21.236;2022-09-09T23:36:12;100579.59;;;13.17;81.50
44453;BME280;30155;52.164;21.236;2022-09-09T23:41:07;100578.73;;;13.16;81.61
44453;BME280;30155;52.164;21.236;2022-09-09T23:46:00;100583.08;;;13.14;81.53
44453;BME280;30155;52.164;21.236;2022-09-09T23:51:15;100583.06;;;13.13;81.53
44453;BME280;30155;52.164;21.236;2022-09-09T23:56:17;100588.28;;;13.13;81.63
